createdAt,value
2022-12-17T00:00:33.673Z,102139.75
2022-12-17T00:03:19.629Z,102138.88
2022-12-17T00:06:05.236Z,102142.84
2022-12-17T00:08:50.298Z,102137.66
2022-12-17T00:11:37.488Z,102136.50
2022-12-17T00:14:22.813Z,102139.34
2022-12-17T00:17:07.821Z,102138.28
2022-12-17T00:19:52.803Z,102140.03
2022-12-17T00:22:42.060Z,102146.19
2022-12-17T00:25:27.651Z,102143.00
2022-12-17T00:28:28.565Z,102139.28
2022-12-17T00:31:14.412Z,102149.44
2022-12-17T00:34:00.088Z,102131.34
2022-12-17T00:36:46.235Z,102147.84
2022-12-17T00:39:31.205Z,102138.75
2022-12-17T00:42:16.723Z,102139.72
2022-12-17T00:45:03.233Z,102151.00
2022-12-17T00:47:48.393Z,102148.81
2022-12-17T00:50:33.553Z,102149.56
2022-12-17T00:53:18.818Z,102153.09
2022-12-17T00:56:04.113Z,102159.47
2022-12-17T00:58:49.321Z,102172.19
2022-12-17T01:01:35.818Z,102160.56
2022-12-17T01:04:21.078Z,102161.84
2022-12-17T01:07:06.524Z,102158.69
2022-12-17T01:09:54.113Z,102169.59
2022-12-17T01:12:54.059Z,102172.63
2022-12-17T01:15:41.501Z,102170.84
2022-12-17T01:18:28.004Z,102162.72
2022-12-17T01:21:15.271Z,102162.50
2022-12-17T01:24:00.237Z,102162.59
2022-12-17T01:26:45.526Z,102155.13
2022-12-17T01:29:30.896Z,102161.25
2022-12-17T01:32:16.061Z,102163.06
2022-12-17T01:35:02.766Z,102167.34
2022-12-17T01:37:47.995Z,102122.50
2022-12-17T01:40:33.256Z,102173.88
2022-12-17T01:43:18.321Z,102179.47
2022-12-17T01:46:07.406Z,102176.91
2022-12-17T01:48:58.736Z,102152.19
2022-12-17T01:51:46.543Z,102174.69
2022-12-17T01:54:32.895Z,102175.25
2022-12-17T01:57:19.272Z,102170.75
2022-12-17T02:00:09.200Z,102180.75
2022-12-17T02:02:54.886Z,102183.25
2022-12-17T02:05:50.628Z,102186.16
2022-12-17T02:08:45.710Z,102185.97
2022-12-17T02:11:40.287Z,102180.34
2022-12-17T02:14:33.609Z,102183.84
2022-12-17T02:17:24.485Z,102142.16
2022-12-17T02:20:24.621Z,102188.31
2022-12-17T02:23:20.117Z,102194.09
2022-12-17T02:26:11.601Z,102189.97
2022-12-17T02:29:03.720Z,102197.03
2022-12-17T02:31:50.431Z,102192.19
2022-12-17T02:34:35.738Z,102190.88
2022-12-17T02:37:21.164Z,102202.53
2022-12-17T02:40:06.504Z,102196.06
2022-12-17T02:42:51.878Z,102201.13
2022-12-17T02:45:39.669Z,102197.47
2022-12-17T02:48:26.571Z,102205.56
2022-12-17T02:51:23.392Z,102207.06
2022-12-17T02:54:11.910Z,102208.50
2022-12-17T02:56:57.638Z,102202.78
2022-12-17T02:59:42.638Z,102191.78
2022-12-17T03:02:34.559Z,102210.06
2022-12-17T03:05:43.954Z,102204.31
2022-12-17T03:08:25.356Z,102219.03
2022-12-17T03:11:10.646Z,102222.81
2022-12-17T03:13:55.755Z,102227.94
2022-12-17T03:16:41.137Z,102221.34
2022-12-17T03:19:29.126Z,102212.63
2022-12-17T03:22:14.186Z,102220.25
2022-12-17T03:24:59.380Z,102219.22
2022-12-17T03:27:44.830Z,102215.63
2022-12-17T03:30:35.539Z,102215.69
2022-12-17T03:33:21.606Z,102217.50
2022-12-17T03:36:11.339Z,102213.59
2022-12-17T03:38:56.301Z,102205.03
2022-12-17T03:41:41.434Z,102211.25
2022-12-17T03:44:26.793Z,102207.66
2022-12-17T03:47:12.147Z,102215.06
2022-12-17T03:49:57.233Z,102221.97
2022-12-17T03:52:43.866Z,102219.03
2022-12-17T03:55:29.208Z,102226.13
2022-12-17T03:58:14.580Z,102230.53
2022-12-17T04:00:59.958Z,102223.19
2022-12-17T04:03:45.481Z,102223.16
2022-12-17T04:06:30.781Z,102228.69
2022-12-17T04:09:17.366Z,102234.41
2022-12-17T04:12:02.773Z,102240.91
2022-12-17T04:15:02.537Z,102234.66
2022-12-17T04:17:47.700Z,102235.06
2022-12-17T04:20:33.195Z,102235.91
2022-12-17T04:23:18.592Z,102236.31
2022-12-17T04:26:04.950Z,102238.63
2022-12-17T04:28:50.074Z,102240.94
2022-12-17T04:31:35.527Z,102233.38
2022-12-17T04:34:21.080Z,102252.88
2022-12-17T04:37:09.644Z,102259.06
2022-12-17T04:39:54.808Z,102263.00
2022-12-17T04:42:41.200Z,102267.00
2022-12-17T04:45:29.707Z,102268.13
2022-12-17T04:48:20.478Z,102259.31
2022-12-17T04:51:05.929Z,102264.25
2022-12-17T04:53:51.192Z,102253.28
2022-12-17T04:56:36.708Z,102258.41
2022-12-17T04:59:23.548Z,102260.25
2022-12-17T05:02:09.084Z,102272.19
2022-12-17T05:04:54.887Z,102266.28
2022-12-17T05:07:40.310Z,102263.72
2022-12-17T05:10:28.487Z,102266.09
2022-12-17T05:13:29.321Z,102264.31
2022-12-17T05:16:16.261Z,102262.47
2022-12-17T05:19:06.700Z,102259.84
2022-12-17T05:21:52.046Z,102263.16
2022-12-17T05:24:37.106Z,102256.50
2022-12-17T05:27:22.440Z,102256.50
2022-12-17T05:30:07.460Z,102254.91
2022-12-17T05:32:53.843Z,102263.75
2022-12-17T05:35:38.973Z,102257.03
2022-12-17T05:38:25.480Z,102272.38
2022-12-17T05:41:11.008Z,102264.66
2022-12-17T05:43:56.069Z,102262.09
2022-12-17T05:46:41.422Z,102266.31
2022-12-17T05:49:28.107Z,102262.31
2022-12-17T05:52:13.680Z,102267.66
2022-12-17T05:54:59.211Z,102269.38
2022-12-17T05:57:44.194Z,102270.16
2022-12-17T06:00:30.563Z,102270.00
2022-12-17T06:03:17.251Z,102277.97
2022-12-17T06:06:04.240Z,102282.75
2022-12-17T06:08:49.622Z,102279.41
2022-12-17T06:11:35.091Z,102280.25
2022-12-17T06:14:20.419Z,102290.44
2022-12-17T06:17:05.888Z,102302.72
2022-12-17T06:19:51.231Z,102303.38
2022-12-17T06:22:37.966Z,102293.38
2022-12-17T06:25:23.945Z,102286.97
2022-12-17T06:28:16.932Z,102284.63
2022-12-17T06:31:02.353Z,102287.75
2022-12-17T06:33:47.537Z,102297.94
2022-12-17T06:36:32.919Z,102296.31
2022-12-17T06:39:19.368Z,102294.78
2022-12-17T06:42:10.002Z,102292.16
2022-12-17T06:44:55.775Z,102298.13
2022-12-17T06:47:42.263Z,102301.22
2022-12-17T06:50:27.453Z,102305.63
2022-12-17T06:53:19.041Z,102256.50
2022-12-17T06:56:05.951Z,102287.25
2022-12-17T06:58:51.499Z,102308.34
2022-12-17T07:01:37.001Z,102307.06
2022-12-17T07:04:22.350Z,102302.66
2022-12-17T07:07:07.437Z,102330.94
2022-12-17T07:09:53.029Z,102339.28
2022-12-17T07:12:40.538Z,102334.88
2022-12-17T07:15:26.432Z,102335.34
2022-12-17T07:18:15.124Z,102338.91
2022-12-17T07:21:00.808Z,102339.28
2022-12-17T07:23:46.145Z,102343.06
2022-12-17T07:26:31.255Z,102344.88
2022-12-17T07:29:17.849Z,102335.44
2022-12-17T07:32:02.975Z,102346.47
2022-12-17T07:34:48.284Z,102342.41
2022-12-17T07:37:33.675Z,102341.84
2022-12-17T07:40:18.815Z,102340.50
2022-12-17T07:43:04.114Z,102344.91
2022-12-17T07:45:47.000Z,102352.66
2022-12-17T07:48:32.514Z,102365.13
2022-12-17T07:51:17.964Z,102354.44
2022-12-17T07:54:03.184Z,102371.41
2022-12-17T07:56:48.655Z,102362.47
2022-12-17T07:59:35.043Z,102369.38
2022-12-17T08:02:22.137Z,102375.88
2022-12-17T08:05:07.502Z,102386.59
2022-12-17T08:07:52.810Z,102386.84
2022-12-17T08:10:38.347Z,102392.75
2022-12-17T08:13:25.413Z,102395.25
2022-12-17T08:16:11.781Z,102396.31
2022-12-17T08:18:58.305Z,102393.56
2022-12-17T08:21:43.312Z,102398.53
2022-12-17T08:24:28.614Z,102389.16
2022-12-17T08:27:13.954Z,102377.91
2022-12-17T08:29:59.258Z,102400.31
2022-12-17T08:32:44.682Z,102408.03
2022-12-17T08:35:31.384Z,102408.16
2022-12-17T08:38:20.207Z,102398.28
2022-12-17T08:41:05.591Z,102408.41
2022-12-17T08:43:50.920Z,102405.13
2022-12-17T08:46:36.199Z,102412.56
2022-12-17T08:49:21.730Z,102413.66
2022-12-17T08:52:08.406Z,102406.59
2022-12-17T08:54:53.820Z,102407.56
2022-12-17T08:57:39.129Z,102412.56
2022-12-17T09:00:25.511Z,102419.03
2022-12-17T09:03:15.853Z,102417.19
2022-12-17T09:06:00.999Z,102382.22
2022-12-17T09:08:47.445Z,102428.53
2022-12-17T09:11:35.120Z,102426.72
2022-12-17T09:14:20.565Z,102428.66
2022-12-17T09:17:05.965Z,102421.69
2022-12-17T09:19:51.195Z,102431.41
2022-12-17T09:22:36.611Z,102432.84
2022-12-17T09:25:29.224Z,102427.69
2022-12-17T09:28:19.167Z,102430.69
2022-12-17T09:31:04.585Z,102433.97
2022-12-17T09:33:58.603Z,102425.00
2022-12-17T09:36:49.503Z,102432.63
2022-12-17T09:39:36.294Z,102443.34
2022-12-17T09:42:31.869Z,102443.16
2022-12-17T09:45:25.229Z,102425.03
2022-12-17T09:48:18.523Z,102433.81
2022-12-17T09:51:05.619Z,102440.19
2022-12-17T09:53:51.979Z,102450.09
2022-12-17T09:56:37.124Z,102466.78
2022-12-17T09:59:23.524Z,102474.06
2022-12-17T10:02:09.275Z,102477.47
2022-12-17T10:04:59.930Z,102469.25
2022-12-17T10:07:52.714Z,102465.47
2022-12-17T10:10:40.400Z,102461.44
2022-12-17T10:13:30.581Z,102457.84
2022-12-17T10:16:17.174Z,102462.75
2022-12-17T10:19:03.581Z,102455.47
2022-12-17T10:21:49.460Z,102442.53
2022-12-17T10:24:35.271Z,102457.41
2022-12-17T10:27:28.131Z,102457.63
2022-12-17T10:30:13.749Z,102453.84
2022-12-17T10:33:00.447Z,102459.53
2022-12-17T10:35:53.448Z,102471.97
2022-12-17T10:38:41.853Z,102462.94
2022-12-17T10:41:38.853Z,102466.22
2022-12-17T10:44:38.730Z,102478.97
2022-12-17T10:47:24.129Z,102465.63
2022-12-17T10:50:17.385Z,102457.19
2022-12-17T10:53:04.231Z,102457.50
2022-12-17T10:55:51.430Z,102467.38
2022-12-17T10:58:40.219Z,102462.19
2022-12-17T11:01:26.170Z,102459.34
2022-12-17T11:04:13.225Z,102462.84
2022-12-17T11:07:02.769Z,102488.50
2022-12-17T11:10:03.845Z,102502.47
2022-12-17T11:12:59.471Z,102490.25
2022-12-17T11:15:50.568Z,102487.38
2022-12-17T11:18:41.484Z,102495.81
2022-12-17T11:21:30.645Z,102504.09
2022-12-17T11:24:22.680Z,102498.38
2022-12-17T11:27:12.388Z,102502.94
2022-12-17T11:29:57.435Z,102505.00
2022-12-17T11:33:02.131Z,102505.44
2022-12-17T11:35:58.653Z,102493.75
2022-12-17T11:38:53.179Z,102489.34
2022-12-17T11:41:52.454Z,102487.94
2022-12-17T11:44:54.027Z,102486.19
2022-12-17T11:47:49.451Z,102483.13
2022-12-17T11:50:44.052Z,102481.06
2022-12-17T11:53:43.585Z,102480.28
2022-12-17T11:56:33.889Z,102465.84
2022-12-17T11:59:27.278Z,102469.91
2022-12-17T12:02:21.958Z,102467.03
2022-12-17T12:05:27.059Z,102460.13
2022-12-17T12:08:23.503Z,102458.63
2022-12-17T12:11:16.643Z,102468.94
2022-12-17T12:14:11.236Z,102460.13
2022-12-17T12:17:08.835Z,102466.63
2022-12-17T12:20:04.902Z,102461.56
2022-12-17T12:22:56.994Z,102472.00
2022-12-17T12:25:52.467Z,102471.59
2022-12-17T12:28:47.919Z,102471.16
2022-12-17T12:31:42.279Z,102466.94
2022-12-17T12:34:32.387Z,102462.63
2022-12-17T12:37:20.663Z,102470.53
2022-12-17T12:40:12.746Z,102449.03
2022-12-17T12:43:02.872Z,102466.50
2022-12-17T12:45:55.648Z,102474.25
2022-12-17T12:48:52.655Z,102464.78
2022-12-17T12:51:43.076Z,102421.19
2022-12-17T12:54:44.360Z,102467.22
2022-12-17T12:57:50.749Z,102470.44
2022-12-17T13:00:41.883Z,102470.81
2022-12-17T13:03:31.194Z,102454.38
2022-12-17T13:06:00.459Z,102460.69
2022-12-17T13:10:44.255Z,102447.84
2022-12-17T13:13:13.593Z,102452.97
2022-12-17T13:15:44.665Z,102417.34
2022-12-17T13:18:26.955Z,102458.25
2022-12-17T13:21:01.127Z,102466.22
2022-12-17T13:23:34.817Z,102461.19
2022-12-17T13:26:26.586Z,102452.78
2022-12-17T13:29:03.832Z,102459.50
2022-12-17T13:31:44.392Z,102447.38
2022-12-17T13:34:20.113Z,102452.13
2022-12-17T13:36:56.354Z,102454.56
2022-12-17T13:39:35.413Z,102448.91
2022-12-17T13:42:04.986Z,102433.56
2022-12-17T13:44:39.640Z,102449.53
2022-12-17T13:47:19.694Z,102452.59
2022-12-17T13:50:24.355Z,102450.31
2022-12-17T13:52:39.547Z,102447.53
2022-12-17T13:55:09.632Z,102452.06
2022-12-17T13:57:45.676Z,102449.53
2022-12-17T14:00:21.022Z,102460.69
2022-12-17T14:02:48.988Z,102464.28
2022-12-17T14:05:25.730Z,102466.13
2022-12-17T14:07:54.340Z,102444.47
2022-12-17T14:10:22.547Z,102470.88
2022-12-17T14:12:51.117Z,102482.75
2022-12-17T14:15:24.452Z,102481.78
2022-12-17T14:17:53.753Z,102482.75
2022-12-17T14:20:24.324Z,102471.44
2022-12-17T14:22:54.771Z,102481.59
2022-12-17T14:25:25.002Z,102473.38
2022-12-17T14:28:00.411Z,102482.09
2022-12-17T14:30:40.259Z,102484.09
2022-12-17T14:33:26.940Z,102483.31
2022-12-17T14:35:55.824Z,102487.53
2022-12-17T14:38:37.430Z,102446.03
2022-12-17T14:41:32.444Z,102492.84
2022-12-17T14:44:03.543Z,102497.00
2022-12-17T14:46:33.033Z,102490.59
2022-12-17T14:49:02.234Z,102472.53
2022-12-17T14:51:33.154Z,102497.19
2022-12-17T14:54:29.089Z,102496.59
2022-12-17T14:56:58.838Z,102489.03
2022-12-17T14:59:35.757Z,102492.78
2022-12-17T15:02:10.445Z,102488.38
2022-12-17T15:04:39.737Z,102494.69
2022-12-17T15:07:12.067Z,102493.31
2022-12-17T15:09:44.151Z,102500.81
2022-12-17T15:12:12.072Z,102498.88
2022-12-17T15:14:41.001Z,102505.25
2022-12-17T15:17:08.636Z,102505.41
2022-12-17T15:19:36.332Z,102506.28
2022-12-17T15:22:04.306Z,102513.69
2022-12-17T15:24:32.188Z,102515.81
2022-12-17T15:26:59.912Z,102516.06
2022-12-17T15:29:27.515Z,102528.03
2022-12-17T15:31:56.573Z,102527.97
2022-12-17T15:34:24.194Z,102530.16
2022-12-17T15:36:51.895Z,102531.41
2022-12-17T15:39:19.505Z,102542.84
2022-12-17T15:42:04.751Z,102549.91
2022-12-17T15:44:33.495Z,102545.91
2022-12-17T15:47:02.466Z,102543.56
2022-12-17T15:49:30.925Z,102546.34
2022-12-17T15:51:58.637Z,102557.91
2022-12-17T15:54:26.415Z,102555.25
2022-12-17T15:56:54.918Z,102559.66
2022-12-17T15:59:22.650Z,102548.47
2022-12-17T16:01:50.850Z,102552.81
2022-12-17T16:04:24.830Z,102549.34
2022-12-17T16:06:53.433Z,102543.66
2022-12-17T16:09:24.432Z,102552.50
2022-12-17T16:11:54.087Z,102556.25
2022-12-17T16:14:21.986Z,102547.63
2022-12-17T16:16:49.977Z,102558.63
2022-12-17T16:19:17.907Z,102504.19
2022-12-17T16:21:47.332Z,102520.13
2022-12-17T16:24:15.074Z,102565.22
2022-12-17T16:26:42.769Z,102560.53
2022-12-17T16:29:10.426Z,102507.78
2022-12-17T16:31:38.226Z,102574.63
2022-12-17T16:34:09.413Z,102566.88
2022-12-17T16:36:37.322Z,102566.19
2022-12-17T16:39:06.479Z,102568.69
2022-12-17T16:41:34.658Z,102558.88
2022-12-17T16:44:02.446Z,102567.31
2022-12-17T16:46:32.700Z,102570.63
2022-12-17T16:49:05.704Z,102571.59
2022-12-17T16:51:33.400Z,102563.69
2022-12-17T16:54:10.046Z,102570.63
2022-12-17T16:56:40.246Z,102562.22
2022-12-17T16:59:09.555Z,102558.94
2022-12-17T17:01:37.805Z,102566.47
2022-12-17T17:04:07.309Z,102571.63
2022-12-17T17:06:39.558Z,102570.06
2022-12-17T17:09:08.799Z,102550.72
2022-12-17T17:11:36.442Z,102574.44
2022-12-17T17:14:05.022Z,102572.56
2022-12-17T17:16:34.247Z,102559.09
2022-12-17T17:19:02.546Z,102561.09
2022-12-17T17:21:32.165Z,102573.00
2022-12-17T17:24:01.793Z,102579.97
2022-12-17T17:26:32.865Z,102570.56
2022-12-17T17:29:01.500Z,102572.28
2022-12-17T17:32:01.191Z,102575.81
2022-12-17T17:34:17.579Z,102579.34
2022-12-17T17:36:45.369Z,102573.19
2022-12-17T17:39:13.086Z,102577.53
2022-12-17T17:41:42.248Z,102574.84
2022-12-17T17:44:13.437Z,102574.63
2022-12-17T17:46:41.244Z,102579.81
2022-12-17T17:49:09.682Z,102579.78
2022-12-17T17:52:08.578Z,102592.56
2022-12-17T17:54:28.461Z,102594.34
2022-12-17T17:56:57.508Z,102592.75
2022-12-17T17:59:32.514Z,102595.25
2022-12-17T18:02:01.717Z,102588.09
2022-12-17T18:04:29.887Z,102591.91
2022-12-17T18:09:45.192Z,102594.84
2022-12-17T18:12:28.134Z,102598.09
2022-12-17T18:17:43.990Z,102603.38
2022-12-17T18:20:12.487Z,102603.19
2022-12-17T18:22:40.167Z,102606.59
2022-12-17T18:25:08.140Z,102611.09
2022-12-17T18:27:37.113Z,102612.63
2022-12-17T18:30:05.307Z,102588.22
2022-12-17T18:32:32.916Z,102605.84
2022-12-17T18:35:00.574Z,102604.34
2022-12-17T18:37:28.232Z,102599.16
2022-12-17T18:39:55.871Z,102595.66
2022-12-17T18:42:41.030Z,102596.88
2022-12-17T18:45:10.580Z,102602.50
2022-12-17T18:47:38.174Z,102601.72
2022-12-17T18:50:06.935Z,102577.50
2022-12-17T18:52:34.613Z,102590.41
2022-12-17T18:55:02.171Z,102595.06
2022-12-17T18:57:29.786Z,102600.34
2022-12-17T18:59:57.641Z,102607.78
2022-12-17T19:02:26.734Z,102612.72
2022-12-17T19:04:54.411Z,102610.00
2022-12-17T19:07:22.088Z,102613.25
2022-12-17T19:09:49.752Z,102611.28
2022-12-17T19:12:17.535Z,102618.69
2022-12-17T19:14:45.093Z,102613.47
2022-12-17T19:17:12.713Z,102616.78
2022-12-17T19:19:41.693Z,102613.56
2022-12-17T19:22:09.122Z,102614.41
2022-12-17T19:24:36.758Z,102625.25
2022-12-17T19:27:04.567Z,102619.72
2022-12-17T19:29:32.346Z,102619.81
2022-12-17T19:32:00.170Z,102629.31
2022-12-17T19:34:27.971Z,102606.47
2022-12-17T19:36:56.919Z,102623.53
2022-12-17T19:39:24.459Z,102625.69
2022-12-17T19:41:52.092Z,102625.97
2022-12-17T19:44:20.468Z,102627.72
2022-12-17T19:46:48.725Z,102631.63
2022-12-17T19:49:17.392Z,102630.81
2022-12-17T19:51:45.269Z,102640.84
2022-12-17T19:54:15.797Z,102635.13
2022-12-17T19:56:44.196Z,102634.78
2022-12-17T19:59:12.564Z,102651.97
2022-12-17T20:01:43.014Z,102646.72
2022-12-17T20:04:13.526Z,102648.03
2022-12-17T20:06:41.199Z,102647.41
2022-12-17T20:09:08.839Z,102648.38
2022-12-17T20:11:38.053Z,102649.59
2022-12-17T20:14:08.367Z,102655.22
2022-12-17T20:16:38.899Z,102640.22
2022-12-17T20:19:09.131Z,102648.47
2022-12-17T20:21:36.796Z,102657.28
2022-12-17T20:24:04.910Z,102653.97
2022-12-17T20:26:32.631Z,102653.13
2022-12-17T20:29:01.686Z,102642.06
2022-12-17T20:31:29.669Z,102660.66
2022-12-17T20:33:58.717Z,102664.09
2022-12-17T20:36:26.316Z,102661.78
2022-12-17T20:38:53.957Z,102666.66
2022-12-17T20:41:24.447Z,102655.50
2022-12-17T20:43:52.529Z,102656.94
2022-12-17T20:46:23.083Z,102662.00
2022-12-17T20:48:51.134Z,102653.03
2022-12-17T20:51:20.804Z,102661.97
2022-12-17T20:53:48.597Z,102655.25
2022-12-17T20:56:19.519Z,102649.47
2022-12-17T20:58:47.207Z,102652.84
2022-12-17T21:01:16.494Z,102658.66
2022-12-17T21:03:46.531Z,102665.44
2022-12-17T21:06:16.371Z,102672.53
2022-12-17T21:08:49.511Z,102669.28
2022-12-17T21:11:19.667Z,102669.94
2022-12-17T21:13:47.812Z,102667.38
2022-12-17T21:16:18.077Z,102674.91
2022-12-17T21:18:47.323Z,102671.66
2022-12-17T21:21:18.116Z,102674.28
2022-12-17T21:23:46.439Z,102650.63
2022-12-17T21:26:16.339Z,102674.38
2022-12-17T21:28:46.025Z,102671.53
2022-12-17T21:31:19.359Z,102681.59
2022-12-17T21:33:48.835Z,102687.59
2022-12-17T21:36:18.810Z,102688.72
2022-12-17T21:38:47.278Z,102697.72
2022-12-17T21:41:16.838Z,102698.88
2022-12-17T21:43:44.482Z,102708.06
2022-12-17T21:46:13.933Z,102705.31
2022-12-17T21:48:43.384Z,102713.66
2022-12-17T21:51:14.404Z,102713.22
2022-12-17T21:53:43.573Z,102712.34
2022-12-17T21:56:11.715Z,102713.00
2022-12-17T21:58:40.636Z,102720.25
2022-12-17T22:01:09.298Z,102719.47
2022-12-17T22:03:44.680Z,102730.56
2022-12-17T22:06:16.393Z,102729.38
2022-12-17T22:08:45.545Z,102728.22
2022-12-17T22:11:14.814Z,102731.19
2022-12-17T22:14:08.511Z,102725.56
2022-12-17T22:16:39.750Z,102732.91
2022-12-17T22:19:08.293Z,102728.47
2022-12-17T22:21:39.720Z,102724.06
2022-12-17T22:24:08.608Z,102727.75
2022-12-17T22:26:36.128Z,102732.94
2022-12-17T22:29:04.122Z,102724.50
2022-12-17T22:31:49.285Z,102708.38
2022-12-17T22:35:07.835Z,102722.25
2022-12-17T22:39:33.093Z,102722.94
2022-12-17T22:41:43.102Z,102721.66
2022-12-17T22:44:38.096Z,102719.78
2022-12-17T22:45:47.149Z,102723.69
2022-12-17T22:48:14.977Z,102713.22
2022-12-17T22:51:02.462Z,102719.72
2022-12-17T22:53:32.865Z,102729.56
2022-12-17T22:56:13.350Z,102702.28
2022-12-17T22:58:46.429Z,102725.44
2022-12-17T23:01:15.830Z,102723.53
2022-12-17T23:03:47.331Z,102722.72
2022-12-17T23:06:17.002Z,102700.72
2022-12-17T23:08:46.538Z,102722.19
2022-12-17T23:11:17.862Z,102721.28
2022-12-17T23:13:45.959Z,102724.63
2022-12-17T23:16:15.130Z,102738.91
2022-12-17T23:18:43.511Z,102748.25
2022-12-17T23:21:13.523Z,102743.69
2022-12-17T23:23:41.604Z,102733.47
2022-12-17T23:26:13.225Z,102734.63
2022-12-17T23:28:41.461Z,102741.25
2022-12-17T23:31:10.852Z,102740.66
2022-12-17T23:33:39.224Z,102742.88
2022-12-17T23:36:09.190Z,102735.25
2022-12-17T23:38:37.181Z,102733.50
2022-12-17T23:41:06.933Z,102726.03
2022-12-17T23:43:36.760Z,102725.09
2022-12-17T23:46:05.772Z,102711.56
2022-12-17T23:48:34.237Z,102706.75
2022-12-17T23:51:02.692Z,102706.72
2022-12-17T23:53:32.114Z,102710.34
2022-12-17T23:56:05.754Z,102700.94
2022-12-17T23:58:33.718Z,102711.56
